createdAt,value
2019-06-10T00:00:31.854Z,1012.7
2019-06-10T00:01:33.926Z,1012.7
2019-06-10T00:02:36.071Z,1012.6
2019-06-10T00:03:38.181Z,1012.6
2019-06-10T00:04:42.119Z,1012.6
2019-06-10T00:05:44.198Z,1012.6
2019-06-10T00:06:46.574Z,1012.6
2019-06-10T00:07:48.706Z,1012.6
2019-06-10T00:08:53.221Z,1012.6
2019-06-10T00:09:56.414Z,1012.6
2019-06-10T00:11:07.982Z,1012.6
2019-06-10T00:12:13.006Z,1012.6
2019-06-10T00:13:15.104Z,1012.6
2019-06-10T00:14:17.495Z,1012.6
2019-06-10T00:15:21.673Z,1012.5
2019-06-10T00:16:23.759Z,1012.6
2019-06-10T00:17:25.926Z,1012.5
2019-06-10T00:18:45.123Z,1012.5
2019-06-10T00:19:48.253Z,1012.5
2019-06-10T00:20:52.784Z,1012.5
2019-06-10T00:21:54.875Z,1012.5
2019-06-10T00:22:57.704Z,1012.5
2019-06-10T00:24:08.600Z,1012.5
2019-06-10T00:25:13.783Z,1012.4
2019-06-10T00:26:15.854Z,1012.4
2019-06-10T00:27:17.978Z,1012.4
2019-06-10T00:28:21.998Z,1012.3
2019-06-10T00:29:24.473Z,1012.4
2019-06-10T00:30:26.557Z,1012.5
2019-06-10T00:31:31.075Z,1012.4
2019-06-10T00:32:33.450Z,1012.4
2019-06-10T00:33:35.530Z,1012.4
2019-06-10T00:34:37.681Z,1012.3
2019-06-10T00:35:41.765Z,1012.3
2019-06-10T00:36:43.873Z,1012.3
2019-06-10T00:37:46.028Z,1012.3
2019-06-10T00:38:48.125Z,1012.2
2019-06-10T00:39:51.808Z,1012.3
2019-06-10T00:40:54.180Z,1012.2
2019-06-10T00:41:56.716Z,1012.2
2019-06-10T00:43:03.542Z,1012.2
2019-06-10T00:44:14.841Z,1012.2
2019-06-10T00:45:21.069Z,1012.2
2019-06-10T00:46:23.738Z,1012.2
2019-06-10T00:47:25.891Z,1012.2
2019-06-10T00:48:32.263Z,1012.1
2019-06-10T00:49:34.955Z,1012.1
2019-06-10T00:50:37.319Z,1012.1
2019-06-10T00:51:41.672Z,1012.1
2019-06-10T00:52:45.688Z,1012.1
2019-06-10T00:53:47.815Z,1012.1
2019-06-10T00:54:52.197Z,1012.1
2019-06-10T00:55:54.298Z,1012.1
2019-06-10T00:56:56.731Z,1012.1
2019-06-10T00:58:01.064Z,1012
2019-06-10T00:59:08.009Z,1012
2019-06-10T01:00:26.010Z,1012
2019-06-10T01:01:28.098Z,1011.9
2019-06-10T01:02:32.896Z,1011.9
2019-06-10T01:03:34.985Z,1011.9
2019-06-10T01:04:37.121Z,1011.8
2019-06-10T01:05:41.738Z,1011.8
2019-06-10T01:06:44.406Z,1011.8
2019-06-10T01:07:46.539Z,1011.8
2019-06-10T01:08:51.073Z,1011.8
2019-06-10T01:09:53.735Z,1011.8
2019-06-10T01:10:55.916Z,1011.7
2019-06-10T01:11:58.372Z,1011.8
2019-06-10T01:13:05.331Z,1011.8
2019-06-10T01:14:14.102Z,1011.7
2019-06-10T01:15:17.939Z,1011.8
2019-06-10T01:16:22.256Z,1011.7
2019-06-10T01:17:24.401Z,1011.8
2019-06-10T01:18:39.149Z,1011.7
2019-06-10T01:19:43.615Z,1011.7
2019-06-10T01:20:45.703Z,1011.7
2019-06-10T01:21:47.798Z,1011.7
2019-06-10T01:22:52.803Z,1011.7
2019-06-10T01:23:54.899Z,1011.6
2019-06-10T01:24:57.044Z,1011.6
2019-06-10T01:26:01.724Z,1011.5
2019-06-10T01:27:05.657Z,1011.5
2019-06-10T01:28:16.542Z,1011.5
2019-06-10T01:29:24.068Z,1011.4
2019-06-10T01:30:27.613Z,1011.5
2019-06-10T01:31:32.931Z,1011.4
2019-06-10T01:32:35.354Z,1011.4
2019-06-10T01:33:37.436Z,1011.4
2019-06-10T01:34:41.849Z,1011.4
2019-06-10T01:35:43.921Z,1011.4
2019-06-10T01:36:46.058Z,1011.4
2019-06-10T01:37:48.136Z,1011.3
2019-06-10T01:38:51.572Z,1011.4
2019-06-10T01:39:53.719Z,1011.5
2019-06-10T01:40:55.806Z,1011.5
2019-06-10T01:41:57.957Z,1011.5
2019-06-10T01:43:02.408Z,1011.5
2019-06-10T01:44:04.913Z,1011.3
2019-06-10T01:45:13.077Z,1011.4
2019-06-10T01:46:21.383Z,1011.3
2019-06-10T01:47:23.474Z,1011.3
2019-06-10T01:48:47.098Z,1011.3
2019-06-10T01:49:53.868Z,1011.3
2019-06-10T01:50:56.257Z,1011.2
2019-06-10T01:51:58.400Z,1011.2
2019-06-10T01:53:03.369Z,1011.2
2019-06-10T01:54:05.470Z,1011.2
2019-06-10T01:55:14.073Z,1011.1
2019-06-10T01:56:21.771Z,1011.1
2019-06-10T01:57:23.945Z,1011.1
2019-06-10T01:58:26.429Z,1011.1
2019-06-10T01:59:31.375Z,1011.1
2019-06-10T02:00:33.770Z,1011.1
2019-06-10T02:01:35.850Z,1011.1
2019-06-10T02:02:37.969Z,1011.1
2019-06-10T02:03:44.730Z,1011.1
2019-06-10T02:04:46.875Z,1011.1
2019-06-10T02:05:51.861Z,1011
2019-06-10T02:06:54.306Z,1011.1
2019-06-10T02:07:56.424Z,1011
2019-06-10T02:08:58.515Z,1011
2019-06-10T02:10:03.018Z,1011
2019-06-10T02:11:05.127Z,1011
2019-06-10T02:12:07.265Z,1011
2019-06-10T02:13:14.809Z,1011
2019-06-10T02:14:24.428Z,1011
2019-06-10T02:15:26.565Z,1010.9
2019-06-10T02:16:28.609Z,1010.9
2019-06-10T02:17:34.182Z,1010.9
2019-06-10T02:18:36.567Z,1010.9
2019-06-10T02:19:38.705Z,1010.8
2019-06-10T02:20:43.260Z,1010.9
2019-06-10T02:21:45.292Z,1010.8
2019-06-10T02:22:47.436Z,1010.8
2019-06-10T02:23:52.236Z,1010.9
2019-06-10T02:24:54.411Z,1010.9
2019-06-10T02:25:56.526Z,1010.9
2019-06-10T02:27:01.343Z,1010.9
2019-06-10T02:28:03.780Z,1010.8
2019-06-10T02:29:05.868Z,1010.9
2019-06-10T02:30:35.539Z,1010.9
2019-06-10T02:31:58.231Z,1010.8
2019-06-10T02:33:02.914Z,1010.8
2019-06-10T02:34:05.014Z,1010.7
2019-06-10T02:35:26.126Z,1010.7
2019-06-10T02:36:55.173Z,1010.6
2019-06-10T02:37:58.041Z,1010.5
2019-06-10T02:39:04.227Z,1010.5
2019-06-10T02:40:07.196Z,1010.5
2019-06-10T02:41:09.577Z,1010.4
2019-06-10T02:42:29.837Z,1010.5
2019-06-10T02:43:38.706Z,1010.4
2019-06-10T02:44:44.777Z,1010.4
2019-06-10T02:45:47.220Z,1010.4
2019-06-10T02:46:49.595Z,1010.4
2019-06-10T02:47:56.029Z,1010.4
2019-06-10T02:49:45.943Z,1010.4
2019-06-10T02:51:23.207Z,1010.4
2019-06-10T02:52:39.026Z,1010.4
2019-06-10T02:53:46.356Z,1010.3
2019-06-10T02:54:48.770Z,1010.3
2019-06-10T02:55:55.706Z,1010.2
2019-06-10T02:56:57.821Z,1010.2
2019-06-10T02:58:00.334Z,1010.2
2019-06-10T02:59:06.147Z,1010.1
2019-06-10T03:00:26.169Z,1010.2
2019-06-10T03:01:53.829Z,1010.3
2019-06-10T03:02:56.653Z,1010.3
2019-06-10T03:03:58.707Z,1010.3
2019-06-10T03:05:05.075Z,1010.3
2019-06-10T03:06:09.545Z,1010.2
2019-06-10T03:07:44.866Z,1010.2
2019-06-10T03:08:48.266Z,1010.2
2019-06-10T03:09:54.108Z,1010.2
2019-06-10T03:10:56.228Z,1010.2
2019-06-10T03:11:58.749Z,1010.2
2019-06-10T03:13:02.754Z,1010.2
2019-06-10T03:14:05.425Z,1010.2
2019-06-10T03:15:07.558Z,1010.2
2019-06-10T03:16:10.317Z,1010.2
2019-06-10T03:17:15.919Z,1010.2
2019-06-10T03:18:20.123Z,1010.2
2019-06-10T03:19:50.254Z,1010.2
2019-06-10T03:20:55.435Z,1010.1
2019-06-10T03:21:57.500Z,1010.1
2019-06-10T03:22:59.661Z,1010.1
2019-06-10T03:24:04.581Z,1010.1
2019-06-10T03:25:06.670Z,1010.1
2019-06-10T03:26:08.749Z,1010
2019-06-10T03:27:13.596Z,1010
2019-06-10T03:28:15.729Z,1010
2019-06-10T03:29:19.069Z,1010
2019-06-10T03:30:53.591Z,1010
2019-06-10T03:32:06.751Z,1010
2019-06-10T03:33:13.486Z,1010
2019-06-10T03:34:27.098Z,1010
2019-06-10T03:35:49.474Z,1010
2019-06-10T03:36:54.555Z,1010
2019-06-10T03:37:56.713Z,1010
2019-06-10T03:38:58.835Z,1010
2019-06-10T03:40:02.796Z,1010
2019-06-10T03:41:05.259Z,1009.9
2019-06-10T03:42:07.356Z,1009.9
2019-06-10T03:43:11.832Z,1009.9
2019-06-10T03:44:13.991Z,1009.9
2019-06-10T03:45:17.644Z,1009.8
2019-06-10T03:46:25.733Z,1009.8
2019-06-10T03:47:32.774Z,1009.8
2019-06-10T03:48:34.880Z,1009.8
2019-06-10T03:49:55.476Z,1009.7
2019-06-10T03:50:58.626Z,1009.7
2019-06-10T03:52:02.738Z,1009.7
2019-06-10T03:53:05.179Z,1009.7
2019-06-10T03:54:07.653Z,1009.7
2019-06-10T03:55:12.707Z,1009.7
2019-06-10T03:56:15.487Z,1009.7
2019-06-10T03:57:19.494Z,1009.7
2019-06-10T03:58:29.512Z,1009.7
2019-06-10T03:59:34.541Z,1009.7
2019-06-10T04:00:37.382Z,1009.6
2019-06-10T04:01:42.274Z,1009.6
2019-06-10T04:02:45.119Z,1009.6
2019-06-10T04:03:47.203Z,1009.6
2019-06-10T04:04:49.340Z,1009.5
2019-06-10T04:05:54.284Z,1009.5
2019-06-10T04:06:56.652Z,1009.5
2019-06-10T04:07:59.430Z,1009.5
2019-06-10T04:09:04.356Z,1009.5
2019-06-10T04:10:06.507Z,1009.5
2019-06-10T04:11:08.590Z,1009.4
2019-06-10T04:12:12.819Z,1009.5
2019-06-10T04:13:14.892Z,1009.5
2019-06-10T04:14:22.036Z,1009.5
2019-06-10T04:15:32.815Z,1009.5
2019-06-10T04:16:34.906Z,1009.5
2019-06-10T04:17:37.042Z,1009.4
2019-06-10T04:18:39.147Z,1009.4
2019-06-10T04:19:42.381Z,1009.4
2019-06-10T04:20:44.468Z,1009.4
2019-06-10T04:21:46.843Z,1009.5
2019-06-10T04:22:48.967Z,1009.4
2019-06-10T04:23:53.812Z,1009.4
2019-06-10T04:24:55.956Z,1009.4
2019-06-10T04:25:58.048Z,1009.3
2019-06-10T04:27:02.616Z,1009.3
2019-06-10T04:28:04.836Z,1009.3
2019-06-10T04:29:07.306Z,1009.3
2019-06-10T04:30:09.722Z,1009.3
2019-06-10T04:31:23.689Z,1009.3
2019-06-10T04:32:32.581Z,1009.3
2019-06-10T04:33:34.670Z,1009.2
2019-06-10T04:34:36.803Z,1009.3
2019-06-10T04:35:39.220Z,1009.3
2019-06-10T04:36:42.908Z,1009.3
2019-06-10T04:37:45.329Z,1009.2
2019-06-10T04:38:47.700Z,1009.3
2019-06-10T04:39:49.829Z,1009.3
2019-06-10T04:40:54.313Z,1009.2
2019-06-10T04:41:56.747Z,1009.2
2019-06-10T04:42:58.827Z,1009.2
2019-06-10T04:44:02.987Z,1009.2
2019-06-10T04:45:05.136Z,1009.2
2019-06-10T04:46:07.614Z,1009.2
2019-06-10T04:47:12.252Z,1009.2
2019-06-10T04:48:14.341Z,1009.2
2019-06-10T04:49:16.410Z,1009.2
2019-06-10T04:50:40.939Z,1009.3
2019-06-10T04:51:48.324Z,1009.3
2019-06-10T04:52:52.742Z,1009.3
2019-06-10T04:53:55.557Z,1009.3
2019-06-10T04:54:58.074Z,1009.3
2019-06-10T04:56:03.286Z,1009.3
2019-06-10T04:57:05.721Z,1009.3
2019-06-10T04:58:07.821Z,1009.3
2019-06-10T04:59:12.068Z,1009.2
2019-06-10T05:00:15.162Z,1009.3
2019-06-10T05:01:17.250Z,1009.2
2019-06-10T05:02:26.737Z,1009.2
2019-06-10T05:03:34.639Z,1009.2
2019-06-10T05:04:37.047Z,1009.1
2019-06-10T05:05:39.434Z,1009.1
2019-06-10T05:06:44.592Z,1009.1
2019-06-10T05:07:47.069Z,1009.1
2019-06-10T05:08:49.155Z,1009.1
2019-06-10T05:09:52.765Z,1009.1
2019-06-10T05:10:54.846Z,1009.1
2019-06-10T05:11:57.003Z,1009
2019-06-10T05:12:59.372Z,1009.1
2019-06-10T05:14:04.294Z,1009
2019-06-10T05:15:06.465Z,1009
2019-06-10T05:16:08.828Z,1009
2019-06-10T05:17:13.929Z,1009
2019-06-10T05:18:16.015Z,1009
2019-06-10T05:19:18.159Z,1009
2019-06-10T05:20:50.762Z,1009
2019-06-10T05:22:02.956Z,1009.1
2019-06-10T05:23:05.533Z,1009.1
2019-06-10T05:24:07.651Z,1009
2019-06-10T05:25:09.753Z,1009
2019-06-10T05:26:14.859Z,1009.1
2019-06-10T05:27:16.999Z,1009.1
2019-06-10T05:28:20.189Z,1009
2019-06-10T05:29:33.910Z,1009
2019-06-10T05:30:36.209Z,1009
2019-06-10T05:31:38.956Z,1009
2019-06-10T05:32:43.411Z,1009
2019-06-10T05:33:45.771Z,1009
2019-06-10T05:34:47.901Z,1008.9
2019-06-10T05:35:52.835Z,1009
2019-06-10T05:36:55.038Z,1009
2019-06-10T05:37:57.083Z,1009
2019-06-10T05:38:59.174Z,1009
2019-06-10T05:40:02.502Z,1009
2019-06-10T05:41:05.329Z,1008.9
2019-06-10T05:42:07.467Z,1008.9
2019-06-10T05:43:09.560Z,1008.9
2019-06-10T05:44:13.779Z,1008.9
2019-06-10T05:45:15.894Z,1008.9
2019-06-10T05:46:17.985Z,1008.9
2019-06-10T05:47:20.124Z,1008.8
2019-06-10T05:48:35.435Z,1008.8
2019-06-10T05:49:37.552Z,1008.8
2019-06-10T05:50:39.648Z,1008.8
2019-06-10T05:51:44.884Z,1008.8
2019-06-10T05:52:46.975Z,1008.8
2019-06-10T05:53:49.340Z,1008.8
2019-06-10T05:54:54.486Z,1008.8
2019-06-10T05:55:56.569Z,1008.8
2019-06-10T05:56:58.712Z,1008.7
2019-06-10T05:58:02.897Z,1008.7
2019-06-10T05:59:05.414Z,1008.7
2019-06-10T06:00:15.207Z,1008.7
2019-06-10T06:01:17.628Z,1008.7
2019-06-10T06:02:23.701Z,1008.7
2019-06-10T06:03:28.021Z,1008.7
2019-06-10T06:04:35.902Z,1008.7
2019-06-10T06:05:38.363Z,1008.7
2019-06-10T06:06:45.210Z,1008.7
2019-06-10T06:08:08.282Z,1008.7
2019-06-10T06:09:13.994Z,1008.7
2019-06-10T06:10:16.097Z,1008.7
2019-06-10T06:11:18.186Z,1008.7
2019-06-10T06:12:23.024Z,1008.7
2019-06-10T06:13:25.646Z,1008.7
2019-06-10T06:14:29.808Z,1008.8
2019-06-10T06:15:38.360Z,1008.8
2019-06-10T06:16:43.664Z,1008.7
2019-06-10T06:17:45.782Z,1008.7
2019-06-10T06:18:47.916Z,1008.6
2019-06-10T06:19:50.042Z,1008.6
2019-06-10T06:20:55.375Z,1008.6
2019-06-10T06:21:57.531Z,1008.6
2019-06-10T06:22:59.686Z,1008.6
2019-06-10T06:24:04.745Z,1008.6
2019-06-10T06:25:08.243Z,1008.5
2019-06-10T06:26:16.785Z,1008.5
2019-06-10T06:27:19.212Z,1008.5
2019-06-10T06:28:24.026Z,1008.5
2019-06-10T06:29:29.064Z,1008.5
2019-06-10T06:30:37.793Z,1008.6
2019-06-10T06:31:39.872Z,1008.5
2019-06-10T06:32:45.111Z,1008.4
2019-06-10T06:33:47.531Z,1008.4
2019-06-10T06:34:49.632Z,1008.4
2019-06-10T06:35:54.348Z,1008.5
2019-06-10T06:36:56.766Z,1008.5
2019-06-10T06:37:58.849Z,1008.5
2019-06-10T06:39:02.600Z,1008.5
2019-06-10T06:40:04.683Z,1008.5
2019-06-10T06:41:06.779Z,1008.5
2019-06-10T06:42:08.884Z,1008.5
2019-06-10T06:43:12.331Z,1008.5
2019-06-10T06:44:14.425Z,1008.5
2019-06-10T06:45:16.805Z,1008.5
2019-06-10T06:46:18.954Z,1008.4
2019-06-10T06:47:22.925Z,1008.4
2019-06-10T06:48:25.348Z,1008.4
2019-06-10T06:49:28.073Z,1008.4
2019-06-10T06:50:54.311Z,1008.4
2019-06-10T06:52:13.965Z,1008.4
2019-06-10T06:53:39.345Z,1008.4
2019-06-10T06:54:58.613Z,1008.3
2019-06-10T06:56:03.947Z,1008.3
2019-06-10T06:57:06.389Z,1008.3
2019-06-10T06:58:09.136Z,1008.3
2019-06-10T06:59:13.615Z,1008.3
2019-06-10T07:01:00.051Z,1008.2
2019-06-10T07:02:16.516Z,1008.2
2019-06-10T07:03:18.597Z,1008.2
2019-06-10T07:04:23.745Z,1008.1
2019-06-10T07:05:25.838Z,1008
2019-06-10T07:06:27.997Z,1008
2019-06-10T07:07:38.329Z,1008.1
2019-06-10T07:09:03.928Z,1008.1
2019-06-10T07:10:12.463Z,1008.1
2019-06-10T07:11:14.631Z,1008
2019-06-10T07:12:16.717Z,1008
2019-06-10T07:13:18.806Z,1008.1
2019-06-10T07:14:24.186Z,1008.1
2019-06-10T07:15:26.297Z,1008.1
2019-06-10T07:16:28.463Z,1008.1
2019-06-10T07:17:34.609Z,1008.1
2019-06-10T07:18:53.651Z,1008.1
2019-06-10T07:19:57.928Z,1008.1
2019-06-10T07:21:02.532Z,1008.1
2019-06-10T07:22:16.098Z,1008.1
2019-06-10T07:23:19.415Z,1008.1
2019-06-10T07:24:24.266Z,1008.1
2019-06-10T07:25:26.345Z,1008
2019-06-10T07:26:28.513Z,1008
2019-06-10T07:27:33.151Z,1008
2019-06-10T07:28:48.515Z,1008
2019-06-10T07:29:53.203Z,1008
2019-06-10T07:30:55.692Z,1008
2019-06-10T07:31:58.074Z,1008
2019-06-10T07:33:00.175Z,1008
2019-06-10T07:34:04.822Z,1008
2019-06-10T07:35:06.938Z,1008.1
2019-06-10T07:36:09.082Z,1008.1
2019-06-10T07:37:13.229Z,1008
2019-06-10T07:38:15.331Z,1008.1
2019-06-10T07:39:17.768Z,1008
2019-06-10T07:40:22.469Z,1008
2019-06-10T07:41:24.631Z,1008
2019-06-10T07:42:26.737Z,1008
2019-06-10T07:43:29.287Z,1008
2019-06-10T07:44:39.301Z,1008
2019-06-10T07:45:48.375Z,1008
2019-06-10T07:46:53.114Z,1008
2019-06-10T07:47:55.657Z,1008
2019-06-10T07:48:57.823Z,1008
2019-06-10T07:49:59.922Z,1008
2019-06-10T07:51:04.945Z,1008
2019-06-10T07:52:20.034Z,1008.1
2019-06-10T07:53:25.686Z,1008
2019-06-10T07:54:28.356Z,1008
2019-06-10T07:55:34.947Z,1008
2019-06-10T07:56:50.623Z,1008
2019-06-10T07:57:56.087Z,1008
2019-06-10T07:58:58.251Z,1008
2019-06-10T08:00:03.306Z,1008
2019-06-10T08:01:06.129Z,1008
2019-06-10T08:02:08.183Z,1008
2019-06-10T08:03:12.772Z,1007.9
2019-06-10T08:04:14.977Z,1008
2019-06-10T08:05:17.080Z,1008
2019-06-10T08:06:19.234Z,1008
2019-06-10T08:07:24.632Z,1008
2019-06-10T08:08:27.201Z,1008
2019-06-10T08:09:29.600Z,1008
2019-06-10T08:10:35.242Z,1008.1
2019-06-10T08:11:46.756Z,1008.1
2019-06-10T08:12:52.754Z,1008.1
2019-06-10T08:13:54.865Z,1008.1
2019-06-10T08:14:57.256Z,1008.1
2019-06-10T08:15:59.428Z,1008.1
2019-06-10T08:17:04.733Z,1008
2019-06-10T08:18:06.871Z,1008
2019-06-10T08:19:35.509Z,1008
2019-06-10T08:20:56.416Z,1008
2019-06-10T08:21:58.751Z,1008
2019-06-10T08:23:02.516Z,1008
2019-06-10T08:24:04.909Z,1008.1
2019-06-10T08:25:07.672Z,1008
2019-06-10T08:26:12.951Z,1008
2019-06-10T08:27:15.390Z,1008
2019-06-10T08:28:17.540Z,1008
2019-06-10T08:29:19.634Z,1008
2019-06-10T08:30:27.981Z,1008
2019-06-10T08:31:30.089Z,1008
2019-06-10T08:32:36.287Z,1008
2019-06-10T08:33:46.101Z,1008.1
2019-06-10T08:34:53.366Z,1008
2019-06-10T08:36:03.660Z,1008.1
2019-06-10T08:37:06.884Z,1008.1
2019-06-10T08:38:08.982Z,1008.2
2019-06-10T08:39:16.540Z,1008.1
2019-06-10T08:40:18.649Z,1008.1
2019-06-10T08:41:23.382Z,1008.1
2019-06-10T08:42:25.486Z,1008.1
2019-06-10T08:43:27.942Z,1008.1
2019-06-10T08:44:33.202Z,1008.1
2019-06-10T08:45:35.363Z,1008
2019-06-10T08:46:39.059Z,1008
2019-06-10T08:47:49.061Z,1008.1
2019-06-10T08:48:52.912Z,1008
2019-06-10T08:49:55.311Z,1008
2019-06-10T08:50:57.421Z,1008
2019-06-10T08:52:02.919Z,1008
2019-06-10T08:53:18.074Z,1008
2019-06-10T08:54:23.254Z,1008
2019-06-10T08:55:26.335Z,1008
2019-06-10T08:56:28.435Z,1008
2019-06-10T08:57:33.478Z,1008
2019-06-10T08:58:35.759Z,1008
2019-06-10T08:59:53.663Z,1008
2019-06-10T09:00:55.851Z,1008
2019-06-10T09:01:58.688Z,1008
2019-06-10T09:03:04.347Z,1008
2019-06-10T09:04:07.101Z,1008
2019-06-10T09:05:09.217Z,1008
2019-06-10T09:06:14.142Z,1008
2019-06-10T09:07:16.556Z,1008
2019-06-10T09:08:18.716Z,1008
2019-06-10T09:09:22.855Z,1008
2019-06-10T09:10:25.035Z,1008
2019-06-10T09:11:27.536Z,1008
2019-06-10T09:12:36.820Z,1008
2019-06-10T09:13:55.539Z,1008.1
2019-06-10T09:14:57.649Z,1008
2019-06-10T09:16:18.382Z,1008
2019-06-10T09:17:24.850Z,1008
2019-06-10T09:18:26.962Z,1008
2019-06-10T09:19:29.234Z,1008
2019-06-10T09:20:34.865Z,1008
2019-06-10T09:21:36.961Z,1007.9
2019-06-10T09:22:54.602Z,1007.9
2019-06-10T09:24:28.126Z,1007.9
2019-06-10T09:25:33.563Z,1007.8
2019-06-10T09:26:35.692Z,1007.9
2019-06-10T09:27:40.010Z,1007.9
2019-06-10T09:28:56.964Z,1007.9
2019-06-10T09:29:59.380Z,1007.9
2019-06-10T09:31:05.767Z,1007.8
2019-06-10T09:32:08.621Z,1007.8
2019-06-10T09:33:13.201Z,1007.8
2019-06-10T09:34:15.300Z,1007.8
2019-06-10T09:35:17.466Z,1007.8
2019-06-10T09:36:19.576Z,1007.8
2019-06-10T09:37:25.366Z,1007.7
2019-06-10T09:38:27.479Z,1007.7
2019-06-10T09:39:32.709Z,1007.7
2019-06-10T09:40:34.957Z,1007.7
2019-06-10T09:41:52.221Z,1007.6
2019-06-10T09:43:08.893Z,1007.6
2019-06-10T09:44:13.238Z,1007.6
2019-06-10T09:45:15.409Z,1007.7
2019-06-10T09:46:17.494Z,1007.7
2019-06-10T09:47:19.591Z,1007.7
2019-06-10T09:48:24.644Z,1007.7
2019-06-10T09:49:26.751Z,1007.6
2019-06-10T09:50:28.904Z,1007.6
2019-06-10T09:51:32.702Z,1007.5
2019-06-10T09:52:34.866Z,1007.5
2019-06-10T09:53:55.857Z,1007.5
2019-06-10T09:55:09.040Z,1007.5
2019-06-10T09:56:12.809Z,1007.5
2019-06-10T09:57:15.302Z,1007.5
2019-06-10T09:58:17.751Z,1007.4
2019-06-10T09:59:23.462Z,1007.3
2019-06-10T10:00:29.694Z,1007.3
2019-06-10T10:01:34.839Z,1007.3
2019-06-10T10:02:37.323Z,1007.3
2019-06-10T10:03:41.044Z,1007.4
2019-06-10T10:05:03.264Z,1007.3
2019-06-10T10:06:16.128Z,1007.3
2019-06-10T10:07:18.533Z,1007.3
2019-06-10T10:08:23.954Z,1007.2
2019-06-10T10:10:12.831Z,1007.2
2019-06-10T10:11:15.097Z,1007.2
2019-06-10T10:12:17.288Z,1007.2
2019-06-10T10:13:19.506Z,1007.1
2019-06-10T10:14:24.743Z,1007.1
2019-06-10T10:15:34.606Z,1007.1
2019-06-10T10:16:37.259Z,1007.2
2019-06-10T10:17:39.481Z,1007.2
2019-06-10T10:19:05.041Z,1007.2
2019-06-10T10:20:08.532Z,1007.1
2019-06-10T10:21:13.751Z,1007.2
2019-06-10T10:22:16.645Z,1007.2
2019-06-10T10:23:19.272Z,1007.2
2019-06-10T10:24:24.818Z,1007.3
2019-06-10T10:25:27.095Z,1007.3
2019-06-10T10:26:29.328Z,1007.3
2019-06-10T10:27:32.671Z,1007.3
2019-06-10T10:28:34.986Z,1007.3
2019-06-10T10:29:37.193Z,1007.3
2019-06-10T10:30:42.489Z,1007.3
2019-06-10T10:31:59.561Z,1007.3
2019-06-10T10:33:05.134Z,1007.2
2019-06-10T10:34:08.205Z,1007.3
2019-06-10T10:35:12.871Z,1007.3
2019-06-10T10:36:15.157Z,1007.3
2019-06-10T10:37:17.430Z,1007.3
2019-06-10T10:38:19.722Z,1007.3
2019-06-10T10:39:25.048Z,1007.4
2019-06-10T10:40:27.822Z,1007.4
2019-06-10T10:41:32.620Z,1007.4
2019-06-10T10:42:51.898Z,1007.3
2019-06-10T10:44:39.494Z,1007.3
2019-06-10T10:45:47.358Z,1007.3
2019-06-10T10:47:07.962Z,1007.3
2019-06-10T10:48:13.571Z,1007.3
2019-06-10T10:49:16.625Z,1007.3
2019-06-10T10:50:19.011Z,1007.2
2019-06-10T10:51:24.270Z,1007.2
2019-06-10T10:52:26.827Z,1007.2
2019-06-10T10:53:29.383Z,1007.1
2019-06-10T10:54:37.081Z,1007.1
2019-06-10T10:55:39.443Z,1007.2
2019-06-10T10:56:54.637Z,1007.2
2019-06-10T10:58:04.527Z,1007.2
2019-06-10T10:59:06.801Z,1007.2
2019-06-10T11:00:09.110Z,1007.2
2019-06-10T11:01:16.551Z,1007.1
2019-06-10T11:02:19.234Z,1007.1
2019-06-10T11:03:24.518Z,1007.1
2019-06-10T11:04:26.785Z,1007
2019-06-10T11:05:29.336Z,1007
2019-06-10T11:06:35.497Z,1007
2019-06-10T11:07:37.874Z,1007
2019-06-10T11:08:44.726Z,1007
2019-06-10T11:09:57.122Z,1007
2019-06-10T11:11:05.648Z,1007
2019-06-10T11:12:08.809Z,1007
2019-06-10T11:13:11.120Z,1007
2019-06-10T11:14:15.517Z,1007.1
2019-06-10T11:15:17.815Z,1007
2019-06-10T11:16:23.029Z,1007.1
2019-06-10T11:17:26.084Z,1007
2019-06-10T11:18:28.367Z,1007
2019-06-10T11:19:33.153Z,1007
2019-06-10T11:20:35.724Z,1007
2019-06-10T11:21:38.012Z,1007
2019-06-10T11:22:43.528Z,1006.9
2019-06-10T11:23:50.336Z,1006.9
2019-06-10T11:25:06.445Z,1006.9
2019-06-10T11:26:08.735Z,1006.9
2019-06-10T11:27:14.989Z,1006.9
2019-06-10T11:28:17.242Z,1007
2019-06-10T11:29:19.530Z,1006.9
2019-06-10T11:30:22.456Z,1006.9
2019-06-10T11:31:24.770Z,1006.9
2019-06-10T11:32:27.005Z,1006.9
2019-06-10T11:33:29.337Z,1006.9
2019-06-10T11:34:35.785Z,1006.9
2019-06-10T11:35:38.074Z,1006.8
2019-06-10T11:36:42.783Z,1006.8
2019-06-10T11:37:45.162Z,1006.9
2019-06-10T11:38:48.866Z,1006.8
2019-06-10T11:40:03.062Z,1006.8
2019-06-10T11:41:05.345Z,1006.8
2019-06-10T11:42:08.028Z,1006.8
2019-06-10T11:43:13.326Z,1006.7
2019-06-10T11:44:16.224Z,1006.8
2019-06-10T11:45:18.569Z,1006.8
2019-06-10T11:46:20.753Z,1006.8
2019-06-10T11:47:23.357Z,1006.7
2019-06-10T11:48:25.529Z,1006.7
2019-06-10T11:49:28.163Z,1006.7
2019-06-10T11:50:30.427Z,1006.7
2019-06-10T11:51:36.388Z,1006.7
2019-06-10T11:52:38.724Z,1006.7
2019-06-10T11:53:44.224Z,1006.7
2019-06-10T11:55:08.797Z,1006.7
2019-06-10T11:56:25.038Z,1006.7
2019-06-10T11:57:27.323Z,1006.7
2019-06-10T11:58:29.571Z,1006.7
2019-06-10T11:59:36.072Z,1006.7
2019-06-10T12:00:38.634Z,1006.7
2019-06-10T12:01:43.237Z,1006.7
2019-06-10T12:02:45.581Z,1006.7
2019-06-10T12:03:48.740Z,1006.7
2019-06-10T12:05:04.169Z,1006.7
2019-06-10T12:06:06.792Z,1006.7
2019-06-10T12:07:09.954Z,1006.7
2019-06-10T12:08:15.547Z,1006.6
2019-06-10T12:09:18.863Z,1006.6
2019-06-10T12:10:24.556Z,1006.6
2019-06-10T12:11:26.872Z,1006.6
2019-06-10T12:12:29.180Z,1006.6
2019-06-10T12:13:35.454Z,1006.6
2019-06-10T12:14:37.795Z,1006.6
2019-06-10T12:17:15.206Z,1006.6
2019-06-10T12:19:12.522Z,1006.5
2019-06-10T12:20:15.476Z,1006.5
2019-06-10T12:21:17.773Z,1006.5
2019-06-10T12:22:22.919Z,1006.5
2019-06-10T12:23:25.161Z,1006.5
2019-06-10T12:24:27.467Z,1006.5
2019-06-10T12:25:39.839Z,1006.6
2019-06-10T12:26:50.104Z,1006.5
2019-06-10T12:28:08.105Z,1006.5
2019-06-10T12:29:12.719Z,1006.5
2019-06-10T12:30:15.020Z,1006.5
2019-06-10T12:31:17.664Z,1006.5
2019-06-10T12:32:22.701Z,1006.5
2019-06-10T12:33:25.738Z,1006.5
2019-06-10T12:34:28.029Z,1006.4
2019-06-10T12:35:30.233Z,1006.5
2019-06-10T12:36:35.638Z,1006.4
2019-06-10T12:37:37.908Z,1006.3
2019-06-10T12:38:43.018Z,1006.3
2019-06-10T12:39:45.891Z,1006.3
2019-06-10T12:40:48.508Z,1006.3
2019-06-10T12:41:58.250Z,1006.3
2019-06-10T12:43:14.584Z,1006.3
2019-06-10T12:44:16.820Z,1006.3
2019-06-10T12:45:19.024Z,1006.3
2019-06-10T12:46:23.604Z,1006.3
2019-06-10T12:47:25.877Z,1006.3
2019-06-10T12:48:28.064Z,1006.2
2019-06-10T12:49:32.329Z,1006.2
2019-06-10T12:50:34.825Z,1006.2
2019-06-10T12:51:37.031Z,1006.2
2019-06-10T12:52:39.725Z,1006.2
2019-06-10T12:53:43.686Z,1006.2
2019-06-10T12:54:45.959Z,1006.1
2019-06-10T12:55:48.181Z,1006.1
2019-06-10T12:56:54.840Z,1006.1
2019-06-10T12:58:00.133Z,1006.1
2019-06-10T12:59:13.254Z,1006.1
2019-06-10T13:00:26.381Z,1006.1
2019-06-10T13:01:29.170Z,1006.1
2019-06-10T13:02:35.111Z,1006.1
2019-06-10T13:03:37.314Z,1006.1
2019-06-10T13:04:39.882Z,1006.2
2019-06-10T13:05:45.145Z,1006.2
2019-06-10T13:06:47.413Z,1006.2
2019-06-10T13:07:49.582Z,1006.2
2019-06-10T13:08:53.461Z,1006.1
2019-06-10T13:09:58.155Z,1006.1
2019-06-10T13:11:02.389Z,1006.1
2019-06-10T13:12:06.617Z,1006.1
2019-06-10T13:13:10.795Z,1006.1
2019-06-10T13:14:13.712Z,1006.1
2019-06-10T13:15:22.005Z,1006.1
2019-06-10T13:16:25.151Z,1006.1
2019-06-10T13:17:28.014Z,1006.1
2019-06-10T13:18:30.515Z,1006.1
2019-06-10T13:19:34.767Z,1006.1
2019-06-10T13:20:37.819Z,1006.1
2019-06-10T13:21:42.419Z,1006.1
2019-06-10T13:22:45.193Z,1006.1
2019-06-10T13:23:47.407Z,1006
2019-06-10T13:24:50.077Z,1006.1
2019-06-10T13:26:02.961Z,1006.1
2019-06-10T13:27:19.618Z,1006
2019-06-10T13:28:24.912Z,1006.1
2019-06-10T13:29:27.172Z,1006
2019-06-10T13:30:29.377Z,1006
2019-06-10T13:31:34.003Z,1006
2019-06-10T13:32:36.199Z,1006
2019-06-10T13:33:38.750Z,1006
2019-06-10T13:34:42.748Z,1005.9
2019-06-10T13:35:44.982Z,1005.9
2019-06-10T13:36:47.232Z,1005.9
2019-06-10T13:37:49.431Z,1005.8
2019-06-10T13:38:54.772Z,1005.8
2019-06-10T13:39:57.755Z,1005.8
2019-06-10T13:41:06.082Z,1005.8
2019-06-10T13:42:13.286Z,1005.8
2019-06-10T13:43:16.568Z,1005.8
2019-06-10T13:44:19.508Z,1005.8
2019-06-10T13:45:25.956Z,1005.8
2019-06-10T13:46:28.440Z,1005.8
2019-06-10T13:47:33.445Z,1005.8
2019-06-10T13:48:35.664Z,1005.8
2019-06-10T13:49:37.925Z,1005.8